Time;durP1;ratioP1;P1;durP2;ratioP2;P2;SDS_P1;SDS_P2;PMS_P1;PMS_P2;Temp;Humidity;BMP_temperature;BMP_pressure;BME280_temperature;BME280_humidity;BME280_pressure;Samples;Min_cycle;Max_cycle;Signal;HPM_P1;HPM_P2
2024/01/04 00:01:18;;;;;;;4.32;1.77;;;6.40;99.90;;;;;;5076871;28;20176;-84
2024/01/04 00:03:47;;;;;;;5.28;1.88;;;6.40;99.90;;;;;;5093277;27;20044;-86
2024/01/04 00:06:17;;;;;;;7.47;2.22;;;6.40;99.90;;;;;;5091023;27;20062;-83
2024/01/04 00:08:46;;;;;;;5.45;2.15;;;6.40;99.90;;;;;;5078282;28;20055;-86
2024/01/04 00:11:16;;;;;;;5.70;1.75;;;6.30;99.90;;;;;;5093737;27;20407;-83
2024/01/04 00:13:44;;;;;;;5.70;1.70;;;6.30;99.90;;;;;;5089444;27;20055;-84
2024/01/04 00:16:13;;;;;;;3.92;1.75;;;6.30;99.90;;;;;;5071567;28;20070;-85
2024/01/04 00:18:42;;;;;;;5.85;2.08;;;6.30;99.90;;;;;;5075047;28;20125;-86
2024/01/04 00:21:13;;;;;;;5.78;1.45;;;6.20;99.90;;;;;;5080157;28;20525;-85
2024/01/04 00:23:42;;;;;;;4.25;1.60;;;6.20;99.90;;;;;;5082448;28;20044;-85
2024/01/04 00:26:10;;;;;;;5.07;1.73;;;6.20;99.90;;;;;;5084633;28;20487;-85
2024/01/04 00:28:43;;;;;;;4.10;1.45;;;6.10;99.90;;;;;;5095654;27;20120;-82
2024/01/04 00:31:11;;;;;;;6.68;1.85;;;6.10;99.90;;;;;;5076739;28;20136;-83
2024/01/04 00:33:40;;;;;;;4.32;2.10;;;6.10;99.90;;;;;;5078486;28;20062;-84
2024/01/04 00:36:09;;;;;;;5.10;1.75;;;6.10;99.90;;;;;;5075818;28;22511;-85
2024/01/04 00:38:39;;;;;;;9.98;2.10;;;6.10;99.90;;;;;;5090792;27;20092;-84
2024/01/04 00:41:08;;;;;;;5.60;2.17;;;6.10;99.90;;;;;;5075097;28;21038;-84
2024/01/04 00:43:38;;;;;;;6.75;2.45;;;6.10;99.90;;;;;;5082576;28;20044;-83
2024/01/04 00:46:08;;;;;;;4.97;1.95;;;6.00;99.90;;;;;;5092402;27;20056;-84
2024/01/04 00:48:37;;;;;;;7.85;2.30;;;6.00;99.90;;;;;;5092012;27;20052;-84
2024/01/04 00:51:06;;;;;;;9.02;2.42;;;6.00;99.90;;;;;;5098815;27;20059;-86
2024/01/04 00:53:35;;;;;;;7.65;1.90;;;6.00;99.90;;;;;;5102410;27;20043;-85
2024/01/04 00:56:04;;;;;;;4.95;2.28;;;6.00;99.90;;;;;;5075902;28;20091;-85
2024/01/04 00:58:32;;;;;;;5.90;2.00;;;6.00;99.90;;;;;;5081110;28;20517;-85
2024/01/04 01:01:03;;;;;;;7.50;2.40;;;6.00;99.90;;;;;;5098204;27;20512;-83
2024/01/04 01:03:35;;;;;;;6.00;1.92;;;6.00;99.90;;;;;;5074280;28;20075;-85
2024/01/04 01:06:04;;;;;;;2.80;1.73;;;6.00;99.90;;;;;;5075641;28;20063;-85
2024/01/04 01:08:33;;;;;;;7.50;2.17;;;6.00;99.90;;;;;;5096051;27;20078;-86
2024/01/04 01:11:01;;;;;;;9.57;2.45;;;5.90;99.90;;;;;;5077749;28;20048;-85
2024/01/04 01:13:30;;;;;;;6.30;2.17;;;6.00;99.90;;;;;;5079926;28;20052;-85
2024/01/04 01:15:58;;;;;;;5.53;2.10;;;6.00;99.90;;;;;;5090554;27;20194;-85
2024/01/04 01:18:27;;;;;;;4.10;2.05;;;6.00;99.90;;;;;;5088796;27;20048;-85
2024/01/04 01:20:57;;;;;;;4.70;2.10;;;6.00;99.90;;;;;;5081193;28;20044;-85
2024/01/04 01:23:26;;;;;;;6.97;2.17;;;6.00;99.90;;;;;;5076988;28;20059;-87
2024/01/04 01:25:55;;;;;;;6.40;2.45;;;6.00;99.90;;;;;;5092555;27;20133;-85
2024/01/04 01:28:23;;;;;;;5.55;2.20;;;6.00;99.90;;;;;;5092551;27;20104;-84
2024/01/04 01:30:52;;;;;;;7.18;3.20;;;6.00;99.90;;;;;;5095345;27;20113;-84
2024/01/04 01:33:22;;;;;;;5.85;2.53;;;6.00;99.90;;;;;;5075759;28;20048;-84
2024/01/04 01:35:50;;;;;;;8.38;2.85;;;6.00;99.90;;;;;;5079229;28;20128;-85
2024/01/04 01:38:21;;;;;;;7.40;2.50;;;6.00;99.90;;;;;;5075798;28;20079;-86
2024/01/04 01:40:49;;;;;;;6.57;2.58;;;5.90;99.90;;;;;;5073766;28;20074;-86
2024/01/04 01:43:17;;;;;;;5.13;2.67;;;5.90;99.90;;;;;;5071452;28;20136;-85
2024/01/04 01:45:47;;;;;;;6.93;2.53;;;5.90;99.90;;;;;;5076697;28;20044;-84
2024/01/04 01:48:15;;;;;;;7.28;2.28;;;5.90;99.90;;;;;;5089886;27;20125;-86
2024/01/04 01:50:45;;;;;;;7.15;2.63;;;5.90;99.90;;;;;;5074293;28;20278;-84
2024/01/04 01:53:14;;;;;;;6.15;2.67;;;5.90;99.90;;;;;;5077399;28;20190;-86
2024/01/04 01:55:44;;;;;;;8.77;2.60;;;5.90;99.90;;;;;;5071574;28;20052;-83
2024/01/04 01:58:14;;;;;;;7.90;2.85;;;5.80;99.90;;;;;;5073657;28;20048;-86
2024/01/04 02:00:43;;;;;;;7.63;2.88;;;5.90;99.90;;;;;;5085082;27;20067;-84
2024/01/04 02:03:12;;;;;;;6.45;2.33;;;5.90;99.90;;;;;;5071811;28;20056;-84
2024/01/04 02:05:40;;;;;;;7.57;2.47;;;5.80;99.90;;;;;;5090606;27;20051;-85
2024/01/04 02:08:09;;;;;;;7.45;3.15;;;5.90;99.90;;;;;;5079171;28;20055;-84
2024/01/04 02:10:38;;;;;;;7.07;2.35;;;5.80;99.90;;;;;;5073183;28;20749;-84
2024/01/04 02:13:09;;;;;;;9.02;2.95;;;5.80;99.90;;;;;;5076308;28;20051;-83
2024/01/04 02:15:37;;;;;;;9.50;3.00;;;5.80;99.90;;;;;;5069174;28;20056;-85
2024/01/04 02:18:07;;;;;;;6.80;3.03;;;5.80;99.90;;;;;;5089558;27;20131;-85
2024/01/04 02:20:36;;;;;;;8.18;2.42;;;5.80;99.90;;;;;;5073932;28;20060;-84
2024/01/04 02:23:06;;;;;;;9.60;2.72;;;5.80;99.90;;;;;;5082591;28;20425;-86
2024/01/04 02:25:34;;;;;;;6.00;2.42;;;5.80;99.90;;;;;;5077026;28;20411;-82
2024/01/04 02:28:03;;;;;;;8.35;3.15;;;5.80;99.90;;;;;;5089211;27;20052;-85
2024/01/04 02:30:31;;;;;;;5.05;2.03;;;5.70;99.90;;;;;;5074114;28;20055;-84
2024/01/04 02:33:00;;;;;;;7.00;3.05;;;5.70;99.90;;;;;;5087896;27;20077;-84
2024/01/04 02:35:29;;;;;;;5.97;2.90;;;5.70;99.90;;;;;;5079612;28;20048;-86
2024/01/04 02:37:57;;;;;;;7.00;2.63;;;5.80;99.90;;;;;;5079872;28;20128;-85
2024/01/04 02:40:28;;;;;;;6.55;3.60;;;5.70;99.90;;;;;;5082000;28;20145;-86
2024/01/04 02:42:57;;;;;;;6.63;3.25;;;5.70;99.90;;;;;;5094530;27;20204;-84
2024/01/04 02:45:25;;;;;;;5.53;2.85;;;5.70;99.90;;;;;;5078455;28;22577;-83
2024/01/04 02:47:53;;;;;;;8.32;3.50;;;5.70;99.90;;;;;;5075969;28;20064;-84
2024/01/04 02:50:23;;;;;;;7.00;3.25;;;5.70;99.90;;;;;;5081704;28;20040;-86
2024/01/04 02:52:51;;;;;;;5.93;2.83;;;5.70;99.90;;;;;;5077001;28;20157;-84
2024/01/04 02:55:20;;;;;;;5.93;3.17;;;5.60;99.90;;;;;;5072504;28;20056;-83
2024/01/04 02:57:50;;;;;;;9.05;2.97;;;5.60;99.90;;;;;;5073843;28;20394;-84
2024/01/04 03:00:20;;;;;;;7.32;3.47;;;5.60;99.90;;;;;;5101196;28;20508;-84
2024/01/04 03:02:48;;;;;;;8.48;3.30;;;5.60;99.90;;;;;;5078103;28;20143;-85
2024/01/04 03:05:18;;;;;;;7.00;2.97;;;5.60;99.90;;;;;;5102464;28;20051;-84
2024/01/04 03:07:46;;;;;;;6.38;2.58;;;5.60;99.90;;;;;;5087461;27;20056;-85
2024/01/04 03:10:15;;;;;;;7.07;3.10;;;5.50;99.90;;;;;;5091705;27;22542;-82
2024/01/04 03:12:43;;;;;;;6.88;3.30;;;5.50;99.90;;;;;;5073553;28;20839;-84
2024/01/04 03:15:13;;;;;;;8.48;3.72;;;5.40;99.90;;;;;;5075535;28;20991;-86
2024/01/04 03:17:42;;;;;;;7.22;3.03;;;5.40;99.90;;;;;;5098900;28;21417;-85
2024/01/04 03:20:11;;;;;;;9.13;3.10;;;5.40;99.90;;;;;;5087644;28;20048;-87
2024/01/04 03:22:40;;;;;;;6.90;3.03;;;5.30;99.90;;;;;;5070538;28;20052;-84
2024/01/04 03:25:10;;;;;;;8.73;3.20;;;5.30;99.90;;;;;;5095348;28;20887;-85
2024/01/04 03:27:39;;;;;;;8.43;2.88;;;5.20;99.90;;;;;;5092336;28;20193;-87
2024/01/04 03:30:09;;;;;;;7.63;3.17;;;5.20;99.90;;;;;;5070819;28;20052;-85
2024/01/04 03:32:39;;;;;;;11.38;4.07;;;5.20;99.90;;;;;;5071287;28;22522;-85
2024/01/04 03:35:09;;;;;;;10.68;3.85;;;5.20;99.90;;;;;;5086110;28;20052;-86
2024/01/04 03:37:37;;;;;;;7.95;3.67;;;5.20;99.90;;;;;;5074710;28;20044;-87
2024/01/04 03:40:07;;;;;;;8.95;3.63;;;5.10;99.90;;;;;;5089014;28;20060;-86
2024/01/04 03:42:36;;;;;;;9.07;4.10;;;5.10;99.90;;;;;;5070268;28;20062;-86
2024/01/04 03:45:07;;;;;;;7.72;3.53;;;5.10;99.90;;;;;;5074497;28;22600;-85
2024/01/04 03:47:35;;;;;;;7.93;3.85;;;5.10;99.90;;;;;;5077650;28;20060;-84
2024/01/04 03:50:07;;;;;;;7.15;3.63;;;5.10;99.90;;;;;;5086913;28;20048;-85
2024/01/04 03:52:36;;;;;;;8.70;3.80;;;5.10;99.90;;;;;;5087799;28;20063;-85
2024/01/04 03:55:05;;;;;;;10.65;4.00;;;5.00;99.90;;;;;;5074534;28;20052;-86
2024/01/04 03:57:33;;;;;;;9.52;4.05;;;5.00;99.90;;;;;;5073188;28;20189;-87
2024/01/04 04:00:03;;;;;;;8.68;4.03;;;5.00;99.90;;;;;;5074336;28;20076;-85
2024/01/04 04:02:38;;;;;;;11.02;4.20;;;5.00;99.90;;;;;;5072578;28;22694;-84
2024/01/04 04:05:09;;;;;;;11.23;3.63;;;4.90;99.90;;;;;;5085099;28;20048;-84
2024/01/04 04:07:38;;;;;;;10.13;4.10;;;5.00;99.90;;;;;;5087000;28;20058;-85
2024/01/04 04:10:08;;;;;;;10.57;4.75;;;4.90;99.90;;;;;;5072134;28;20111;-85
2024/01/04 04:12:37;;;;;;;14.38;5.35;;;4.80;99.90;;;;;;5072872;28;20380;-85
2024/01/04 04:15:08;;;;;;;15.13;5.20;;;4.90;99.90;;;;;;5073978;28;21875;-84
2024/01/04 04:17:37;;;;;;;14.35;5.28;;;4.90;99.90;;;;;;5088881;28;22488;-84
2024/01/04 04:20:08;;;;;;;13.50;5.47;;;5.00;99.90;;;;;;5095590;27;22450;-86
2024/01/04 04:22:37;;;;;;;16.67;5.75;;;5.00;99.90;;;;;;5067783;27;20051;-85
2024/01/04 04:25:05;;;;;;;11.55;5.28;;;5.00;99.90;;;;;;5067016;27;20052;-86
2024/01/04 04:27:34;;;;;;;8.95;4.30;;;5.00;99.90;;;;;;5093160;27;22816;-84
2024/01/04 04:30:02;;;;;;;10.15;4.90;;;5.00;99.90;;;;;;5064950;27;20054;-84
2024/01/04 04:32:31;;;;;;;10.18;4.75;;;5.00;99.90;;;;;;5097577;27;20067;-84
2024/01/04 04:34:59;;;;;;;12.23;5.32;;;5.00;99.90;;;;;;5082708;27;20048;-84
2024/01/04 04:37:29;;;;;;;12.60;5.15;;;5.00;99.90;;;;;;5063338;27;20056;-83
2024/01/04 04:39:58;;;;;;;12.57;5.25;;;5.00;99.90;;;;;;5076463;27;22647;-84
2024/01/04 04:42:26;;;;;;;10.35;4.30;;;5.00;99.90;;;;;;5092790;27;20057;-85
2024/01/04 04:44:55;;;;;;;14.77;5.60;;;5.00;99.90;;;;;;5091932;27;20569;-85
2024/01/04 04:47:23;;;;;;;11.48;4.72;;;4.90;99.90;;;;;;5075995;27;20060;-84
2024/01/04 04:49:52;;;;;;;9.38;4.35;;;5.00;99.90;;;;;;5077422;28;20052;-80
2024/01/04 04:52:20;;;;;;;12.32;5.03;;;5.00;99.90;;;;;;5076589;28;20523;-84
2024/01/04 04:54:51;;;;;;;12.93;4.55;;;5.00;99.90;;;;;;5078922;28;20121;-83
2024/01/04 04:57:20;;;;;;;15.55;4.78;;;5.00;99.90;;;;;;5079362;28;20101;-84
2024/01/04 04:59:49;;;;;;;10.85;4.18;;;5.00;99.90;;;;;;5076486;28;20067;-85
2024/01/04 05:02:17;;;;;;;10.65;4.72;;;5.00;99.90;;;;;;5093782;27;20063;-84
2024/01/04 05:04:46;;;;;;;9.52;4.32;;;5.00;99.90;;;;;;5077349;28;20048;-85
2024/01/04 05:07:15;;;;;;;12.48;4.72;;;5.10;99.90;;;;;;5076160;28;20047;-87
2024/01/04 05:09:43;;;;;;;13.20;4.25;;;5.00;99.90;;;;;;5074060;28;20047;-84
2024/01/04 05:12:13;;;;;;;11.50;5.05;;;5.10;99.90;;;;;;5077237;28;20052;-83
2024/01/04 05:14:42;;;;;;;8.65;4.40;;;5.10;99.90;;;;;;5087182;28;20040;-87
2024/01/04 05:17:11;;;;;;;11.73;4.47;;;5.10;99.90;;;;;;5078163;28;20055;-87
2024/01/04 05:19:40;;;;;;;10.40;4.13;;;5.10;99.90;;;;;;5082025;28;22552;-84
2024/01/04 05:22:08;;;;;;;13.52;4.93;;;5.10;99.90;;;;;;5079311;28;22536;-85
2024/01/04 05:24:38;;;;;;;8.50;4.43;;;5.10;99.90;;;;;;5073732;28;20134;-84
2024/01/04 05:27:06;;;;;;;11.23;4.53;;;5.10;99.90;;;;;;5077704;28;20055;-84
2024/01/04 05:29:36;;;;;;;10.10;4.47;;;5.20;99.90;;;;;;5074374;28;20277;-85
2024/01/04 05:32:05;;;;;;;11.75;4.68;;;5.20;99.90;;;;;;5082014;28;20048;-86
2024/01/04 05:34:36;;;;;;;10.95;4.60;;;5.20;99.90;;;;;;5074781;28;20127;-84
2024/01/04 05:37:05;;;;;;;10.88;4.50;;;5.20;99.90;;;;;;5090093;28;20076;-85
2024/01/04 05:39:33;;;;;;;12.48;4.00;;;5.20;99.90;;;;;;5076040;28;20128;-85
2024/01/04 05:42:01;;;;;;;9.20;3.80;;;5.30;99.90;;;;;;5074048;28;20051;-84
2024/01/04 05:44:30;;;;;;;9.73;4.03;;;5.20;99.90;;;;;;5090686;27;20411;-85
2024/01/04 05:47:00;;;;;;;9.65;3.92;;;5.20;99.90;;;;;;5081036;28;20047;-85
2024/01/04 05:49:28;;;;;;;7.55;3.78;;;5.30;99.90;;;;;;5072043;28;20063;-86
2024/01/04 05:51:57;;;;;;;9.50;3.80;;;5.30;99.90;;;;;;5076327;28;20054;-84
2024/01/04 05:54:25;;;;;;;12.48;4.57;;;5.20;99.90;;;;;;5076680;28;20036;-84
2024/01/04 05:56:54;;;;;;;11.82;4.55;;;5.30;99.90;;;;;;5071939;28;20048;-83
2024/01/04 05:59:24;;;;;;;11.80;5.70;;;5.30;99.90;;;;;;5083963;28;20082;-85
2024/01/04 06:01:53;;;;;;;15.18;5.10;;;5.30;99.90;;;;;;5072148;28;20039;-84
2024/01/04 06:04:23;;;;;;;12.00;4.43;;;5.30;99.90;;;;;;5089646;27;20063;-83
2024/01/04 06:06:53;;;;;;;9.35;5.03;;;5.40;99.90;;;;;;5088426;27;20388;-84
2024/01/04 06:09:21;;;;;;;15.20;4.88;;;5.40;99.90;;;;;;5070052;28;20062;-84
2024/01/04 06:11:51;;;;;;;11.35;4.97;;;5.40;99.90;;;;;;5070231;28;20047;-83
2024/01/04 06:14:20;;;;;;;11.50;4.40;;;5.40;99.90;;;;;;5087109;27;20108;-81
2024/01/04 06:16:48;;;;;;;9.18;4.45;;;5.40;99.90;;;;;;5087424;27;20089;-84
2024/01/04 06:19:17;;;;;;;11.68;5.00;;;5.40;99.90;;;;;;5089326;27;20069;-83
2024/01/04 06:21:47;;;;;;;14.55;5.60;;;5.40;99.90;;;;;;5072517;28;20052;-81
2024/01/04 06:24:16;;;;;;;15.52;5.45;;;5.40;99.90;;;;;;5075475;28;20052;-83
2024/01/04 06:26:44;;;;;;;10.13;4.75;;;5.40;99.90;;;;;;5075238;28;20059;-82
2024/01/04 06:29:13;;;;;;;12.00;4.80;;;5.40;99.90;;;;;;5073862;28;22828;-82
2024/01/04 06:31:41;;;;;;;14.77;5.05;;;5.40;99.90;;;;;;5070085;28;20044;-82
2024/01/04 06:34:09;;;;;;;16.27;4.15;;;5.40;99.90;;;;;;5073064;28;20051;-84
2024/01/04 06:36:39;;;;;;;10.65;4.70;;;5.40;99.90;;;;;;5075304;28;20473;-83
2024/01/04 06:39:08;;;;;;;9.75;4.30;;;5.40;99.90;;;;;;5068893;28;20139;-83
2024/01/04 06:41:39;;;;;;;9.55;3.85;;;5.40;99.90;;;;;;5069293;28;20052;-81
2024/01/04 06:44:07;;;;;;;10.00;3.83;;;5.30;99.90;;;;;;5085596;28;21395;-82
2024/01/04 06:46:36;;;;;;;10.07;4.05;;;5.30;99.90;;;;;;5073064;28;20201;-81
2024/01/04 06:49:05;;;;;;;8.85;3.55;;;5.30;99.90;;;;;;5072976;28;20048;-83
2024/01/04 06:51:34;;;;;;;10.30;4.53;;;5.30;99.90;;;;;;5072455;28;20051;-82
2024/01/04 06:54:03;;;;;;;10.75;3.80;;;5.20;99.90;;;;;;5089525;27;20052;-84
2024/01/04 06:56:33;;;;;;;12.23;4.60;;;5.20;99.90;;;;;;5071421;28;20958;-79
2024/01/04 06:59:03;;;;;;;12.23;4.75;;;5.20;99.90;;;;;;5090874;27;20819;-83
2024/01/04 07:01:32;;;;;;;16.38;6.72;;;5.10;99.90;;;;;;5091048;28;20062;-85
2024/01/04 07:04:02;;;;;;;18.52;7.32;;;5.20;99.90;;;;;;5069413;28;20055;-84
2024/01/04 07:06:30;;;;;;;13.57;6.38;;;5.10;99.90;;;;;;5071523;28;20047;-84
2024/01/04 07:08:59;;;;;;;11.50;5.55;;;5.10;99.90;;;;;;5078588;28;20052;-84
2024/01/04 07:11:30;;;;;;;14.85;5.18;;;5.10;99.90;;;;;;5077979;28;20563;-86
2024/01/04 07:14:00;;;;;;;8.60;3.53;;;5.20;99.90;;;;;;5073762;28;20086;-85
2024/01/04 07:16:29;;;;;;;14.20;4.68;;;5.10;99.90;;;;;;5072818;28;20098;-83
2024/01/04 07:18:57;;;;;;;9.25;3.92;;;5.20;99.90;;;;;;5072361;28;22599;-83
2024/01/04 07:21:26;;;;;;;12.52;4.35;;;5.20;99.90;;;;;;5071536;28;22710;-85
2024/01/04 07:23:54;;;;;;;13.70;4.90;;;5.20;99.90;;;;;;5073636;28;20044;-84
2024/01/04 07:26:23;;;;;;;11.98;5.03;;;5.30;99.90;;;;;;5087896;28;20068;-84
2024/01/04 07:28:51;;;;;;;25.77;8.55;;;5.30;99.90;;;;;;5072504;28;20048;-85
2024/01/04 07:31:21;;;;;;;11.57;5.28;;;5.30;99.90;;;;;;5074811;28;20066;-83
2024/01/04 07:33:49;;;;;;;15.85;5.82;;;5.40;99.90;;;;;;5073674;28;20410;-82
2024/01/04 07:36:18;;;;;;;12.82;4.68;;;5.40;99.90;;;;;;5078704;28;20048;-83
2024/01/04 07:38:47;;;;;;;21.30;9.55;;;5.40;99.90;;;;;;5071698;28;20071;-83
2024/01/04 07:41:15;;;;;;;15.43;5.88;;;5.50;99.90;;;;;;5076357;28;20071;-83
2024/01/04 07:43:44;;;;;;;23.88;13.32;;;5.50;99.90;;;;;;5073183;28;20056;-82
2024/01/04 07:46:12;;;;;;;25.00;10.05;;;5.60;99.90;;;;;;5068874;28;20047;-84
2024/01/04 07:48:42;;;;;;;39.47;19.70;;;5.70;99.90;;;;;;5067961;28;20052;-84
2024/01/04 07:51:11;;;;;;;35.65;16.60;;;5.70;99.90;;;;;;5069990;28;20039;-82
2024/01/04 07:53:40;;;;;;;45.05;16.42;;;5.80;99.90;;;;;;5078315;28;20090;-84
2024/01/04 07:56:09;;;;;;;25.20;10.55;;;5.90;99.90;;;;;;5075951;28;20040;-82
2024/01/04 07:58:37;;;;;;;29.80;11.50;;;6.00;99.90;;;;;;5072849;28;20055;-82
2024/01/04 08:01:06;;;;;;;19.77;9.40;;;6.00;99.90;;;;;;5078403;28;20064;-81
2024/01/04 08:03:35;;;;;;;15.02;8.07;;;6.10;99.90;;;;;;5081987;28;20066;-79
2024/01/04 08:06:06;;;;;;;16.10;8.15;;;6.10;99.90;;;;;;5079750;28;20780;-84
2024/01/04 08:08:35;;;;;;;15.13;8.40;;;6.30;99.90;;;;;;5077205;28;20044;-82
2024/01/04 08:11:04;;;;;;;16.40;7.60;;;6.30;99.90;;;;;;5076691;28;20044;-82
2024/01/04 08:13:33;;;;;;;21.83;9.48;;;6.40;99.90;;;;;;5094861;27;20503;-82
2024/01/04 08:16:02;;;;;;;19.95;7.18;;;6.40;99.90;;;;;;5088285;27;20488;-82
2024/01/04 08:18:31;;;;;;;14.10;6.18;;;6.50;99.90;;;;;;5074826;28;20078;-82
2024/01/04 08:21:03;;;;;;;13.93;6.60;;;6.60;99.90;;;;;;5074070;28;20048;-83
2024/01/04 08:23:32;;;;;;;13.88;4.20;;;6.60;99.90;;;;;;5091384;27;20051;-84
2024/01/04 08:26:05;;;;;;;13.18;4.13;;;6.70;99.90;;;;;;5080360;28;20127;-86
2024/01/04 08:28:34;;;;;;;11.27;4.15;;;6.80;99.90;;;;;;5079246;28;20054;-85
2024/01/04 08:31:02;;;;;;;18.23;4.03;;;6.90;99.90;;;;;;5074055;28;20059;-84
2024/01/04 08:33:32;;;;;;;11.93;3.95;;;6.90;99.90;;;;;;5074537;28;20056;-85
2024/01/04 08:36:01;;;;;;;10.93;3.65;;;7.00;99.90;;;;;;5075127;28;20550;-84
2024/01/04 08:38:32;;;;;;;9.05;4.20;;;7.00;99.90;;;;;;5092961;27;20170;-83
2024/01/04 08:41:01;;;;;;;9.88;3.92;;;7.10;99.90;;;;;;5079756;28;20080;-84
2024/01/04 08:43:29;;;;;;;9.63;3.70;;;7.20;99.90;;;;;;5057695;28;20050;-84
2024/01/04 08:45:57;;;;;;;9.93;3.38;;;7.30;99.90;;;;;;5068457;28;20818;-81
2024/01/04 08:48:26;;;;;;;17.63;4.07;;;7.30;99.90;;;;;;5067809;28;20789;-84
2024/01/04 08:50:55;;;;;;;9.10;3.72;;;7.40;99.90;;;;;;5074241;28;20532;-82
2024/01/04 08:53:23;;;;;;;15.38;6.40;;;7.50;99.90;;;;;;5056731;28;20060;-81
2024/01/04 08:55:53;;;;;;;11.43;4.03;;;7.60;99.90;;;;;;5055300;28;20048;-79
2024/01/04 08:58:22;;;;;;;10.55;3.60;;;7.60;99.90;;;;;;5045482;28;20056;-80
2024/01/04 09:00:50;;;;;;;11.20;4.68;;;7.80;99.90;;;;;;5054762;28;20147;-79
2024/01/04 09:03:21;;;;;;;9.13;3.83;;;7.90;99.90;;;;;;5092981;27;20426;-79
2024/01/04 09:05:50;;;;;;;15.63;4.28;;;7.90;99.90;;;;;;5072525;28;20047;-78
2024/01/04 09:08:18;;;;;;;9.40;3.55;;;8.00;99.90;;;;;;5071728;28;20083;-80
2024/01/04 09:10:47;;;;;;;10.25;3.72;;;8.10;99.90;;;;;;5084497;27;20049;-78
2024/01/04 09:13:17;;;;;;;12.60;3.78;;;8.10;99.90;;;;;;5077316;28;20726;-81
2024/01/04 09:15:46;;;;;;;6.88;2.25;;;8.00;99.90;;;;;;5062418;28;20056;-78
2024/01/04 09:18:14;;;;;;;9.55;4.22;;;8.10;99.90;;;;;;5077168;28;20060;-81
2024/01/04 09:20:43;;;;;;;10.73;3.92;;;8.20;99.90;;;;;;5072512;28;20066;-80
2024/01/04 09:23:12;;;;;;;7.75;2.75;;;8.20;99.90;;;;;;5057354;28;20043;-78
2024/01/04 09:25:40;;;;;;;10.07;3.00;;;8.40;99.90;;;;;;5054770;28;20056;-81
2024/01/04 09:28:09;;;;;;;5.85;2.30;;;8.60;99.90;;;;;;5076551;28;20058;-80
2024/01/04 09:30:38;;;;;;;7.30;2.08;;;8.70;99.90;;;;;;5071878;28;20177;-80
2024/01/04 09:33:07;;;;;;;10.98;2.92;;;8.70;99.90;;;;;;5079470;28;20055;-81
2024/01/04 09:35:37;;;;;;;5.10;1.77;;;8.80;99.90;;;;;;5047258;28;20060;-80
2024/01/04 09:38:06;;;;;;;3.90;1.40;;;8.90;99.90;;;;;;5053437;28;20134;-80
2024/01/04 09:40:34;;;;;;;2.97;0.90;;;9.00;99.90;;;;;;5049275;28;22701;-80
2024/01/04 09:43:03;;;;;;;3.17;1.08;;;9.10;99.90;;;;;;5057218;28;20139;-80
2024/01/04 09:45:34;;;;;;;4.80;0.95;;;9.10;99.90;;;;;;5069416;28;20454;-79
2024/01/04 09:48:10;;;;;;;5.78;1.02;;;9.20;99.90;;;;;;5071050;28;22430;-81
2024/01/04 09:50:55;;;;;;;3.00;0.77;;;9.20;99.90;;;;;;5067235;28;20084;-79
2024/01/04 09:53:24;;;;;;;2.85;0.98;;;9.30;99.90;;;;;;5054108;28;22535;-79
2024/01/04 09:55:53;;;;;;;3.75;0.80;;;9.40;99.90;;;;;;5072611;28;20052;-79
2024/01/04 09:58:25;;;;;;;5.13;1.27;;;9.40;99.90;;;;;;5069535;28;20043;-79
2024/01/04 10:00:54;;;;;;;3.78;1.10;;;9.50;99.90;;;;;;5068295;28;20952;-80
2024/01/04 10:03:25;;;;;;;2.22;0.77;;;9.60;99.90;;;;;;5058333;28;20052;-80
2024/01/04 10:05:55;;;;;;;3.85;0.70;;;9.70;99.90;;;;;;5052466;28;20056;-79
2024/01/04 10:08:35;;;;;;;3.00;0.80;;;9.80;99.90;;;;;;5069939;28;20055;-79
2024/01/04 10:11:13;;;;;;;2.72;0.80;;;9.90;99.90;;;;;;5067041;28;22718;-78
2024/01/04 10:13:43;;;;;;;3.08;1.17;;;9.90;99.90;;;;;;5066904;28;20055;-79
2024/01/04 10:16:12;;;;;;;5.63;1.20;;;9.90;99.90;;;;;;5072952;28;22500;-79
2024/01/04 10:18:44;;;;;;;3.67;1.17;;;10.10;99.90;;;;;;5070157;28;20040;-77
2024/01/04 10:21:13;;;;;;;4.53;1.05;;;10.20;99.90;;;;;;5071641;28;20498;-79
2024/01/04 10:23:42;;;;;;;3.25;0.77;;;10.30;99.90;;;;;;5056645;28;20795;-78
2024/01/04 10:26:13;;;;;;;3.40;1.20;;;10.40;99.90;;;;;;5072843;28;20101;-78
2024/01/04 10:28:41;;;;;;;2.72;0.98;;;10.40;99.90;;;;;;5048476;28;20127;-79
2024/01/04 10:31:11;;;;;;;2.95;0.85;;;10.40;99.90;;;;;;5068271;28;20056;-82
2024/01/04 10:33:42;;;;;;;2.42;0.80;;;10.30;99.90;;;;;;5052365;28;22667;-78
2024/01/04 10:36:13;;;;;;;5.15;0.82;;;10.20;99.90;;;;;;5070703;28;20178;-80
2024/01/04 10:38:42;;;;;;;2.72;0.55;;;10.20;99.90;;;;;;5053857;28;20040;-80
2024/01/04 10:41:10;;;;;;;3.30;0.50;;;10.20;99.90;;;;;;5058684;28;20051;-76
2024/01/04 10:43:42;;;;;;;3.05;0.80;;;10.30;99.90;;;;;;5070509;28;20067;-79
2024/01/04 10:46:13;;;;;;;1.63;0.60;;;10.40;99.90;;;;;;5070492;28;20182;-79
2024/01/04 10:48:42;;;;;;;2.30;0.60;;;10.50;99.90;;;;;;5088162;27;20055;-79
2024/01/04 10:51:14;;;;;;;1.85;0.73;;;10.40;99.90;;;;;;5082915;27;22618;-79
2024/01/04 10:53:43;;;;;;;3.08;0.70;;;10.40;99.90;;;;;;5082882;27;20063;-79
2024/01/04 10:56:12;;;;;;;2.92;0.52;;;10.30;99.90;;;;;;5074088;28;20055;-81
2024/01/04 10:58:42;;;;;;;3.53;0.45;;;10.40;99.90;;;;;;5072563;28;20739;-80
2024/01/04 11:01:11;;;;;;;1.17;0.35;;;10.40;99.90;;;;;;5087307;28;22567;-79
2024/01/04 11:03:42;;;;;;;4.07;0.63;;;10.40;99.90;;;;;;5074509;28;20082;-78
2024/01/04 11:06:12;;;;;;;3.53;0.50;;;10.40;99.90;;;;;;5076018;28;20397;-79
2024/01/04 11:08:42;;;;;;;2.15;0.80;;;10.40;99.90;;;;;;5074457;28;22662;-79
2024/01/04 11:11:14;;;;;;;1.50;0.25;;;10.30;99.90;;;;;;5077552;28;20063;-79
2024/01/04 11:13:42;;;;;;;1.38;0.32;;;10.50;99.90;;;;;;5073563;28;20051;-78
2024/01/04 11:16:22;;;;;;;3.10;0.50;;;10.50;99.90;;;;;;5070273;28;20153;-76
2024/01/04 11:19:03;;;;;;;4.47;0.40;;;10.50;99.90;;;;;;5072091;28;20051;-77
2024/01/04 11:21:57;;;;;;;2.80;0.63;;;10.50;99.90;;;;;;5076791;28;20051;-76
2024/01/04 11:24:40;;;;;;;2.03;0.73;;;10.60;99.90;;;;;;5071419;28;20058;-78
2024/01/04 11:27:14;;;;;;;1.40;0.20;;;10.60;99.90;;;;;;5087234;28;20052;-78
2024/01/04 11:29:43;;;;;;;3.70;0.28;;;10.60;99.90;;;;;;5077641;28;20040;-79
2024/01/04 11:32:11;;;;;;;1.98;0.45;;;10.60;99.90;;;;;;5078668;28;20052;-77
2024/01/04 11:34:41;;;;;;;0.60;0.13;;;10.60;99.90;;;;;;5080406;28;20044;-78
2024/01/04 11:37:17;;;;;;;0.70;0.20;;;10.70;99.90;;;;;;5075845;28;20430;-78
2024/01/04 11:39:55;;;;;;;1.77;0.30;;;10.60;99.90;;;;;;5093237;27;20727;-78
2024/01/04 11:42:32;;;;;;;3.42;0.25;;;10.70;99.90;;;;;;5077857;28;20141;-78
2024/01/04 11:45:04;;;;;;;1.10;0.43;;;10.70;99.90;;;;;;5073844;28;20063;-78
2024/01/04 11:47:38;;;;;;;1.17;0.30;;;10.80;99.00;;;;;;5074562;28;20043;-77
2024/01/04 11:50:15;;;;;;;0.80;0.40;;;10.90;98.10;;;;;;5073663;28;20109;-79
2024/01/04 11:52:50;;;;;;;0.90;0.10;;;10.80;99.50;;;;;;5088376;27;20052;-79
2024/01/04 11:55:25;;;;;;;1.50;0.20;;;10.80;99.40;;;;;;5090054;27;20058;-77
2024/01/04 11:58:05;;;;;;;1.77;0.15;;;10.70;99.60;;;;;;5070465;28;20455;-78
2024/01/04 12:00:34;;;;;;;0.82;0.10;;;10.70;99.40;;;;;;5069094;28;20060;-79
2024/01/04 12:03:12;;;;;;;1.17;0.30;;;10.80;98.90;;;;;;5067134;28;20257;-79
2024/01/04 12:05:43;;;;;;;0.20;0.10;;;10.70;99.60;;;;;;5094324;27;20279;-79
2024/01/04 12:08:24;;;;;;;1.85;0.20;;;10.70;99.70;;;;;;5074072;28;20093;-78
2024/01/04 12:10:53;;;;;;;0.55;0.10;;;10.60;98.90;;;;;;5080061;28;20141;-80
2024/01/04 12:13:22;;;;;;;0.70;0.10;;;10.60;98.70;;;;;;5089953;27;20048;-79
2024/01/04 12:15:51;;;;;;;1.05;0.10;;;10.50;98.60;;;;;;5087522;27;20175;-79
2024/01/04 12:18:21;;;;;;;0.47;0.10;;;10.70;98.60;;;;;;5078365;28;20062;-82
2024/01/04 12:20:55;;;;;;;1.50;0.50;;;10.50;98.00;;;;;;5095192;27;20048;-79
2024/01/04 12:23:41;;;;;;;0.95;0.20;;;10.70;97.40;;;;;;5070813;28;20063;-78
2024/01/04 12:26:10;;;;;;;0.57;0.20;;;10.70;98.00;;;;;;5073261;28;20166;-79
2024/01/04 12:28:40;;;;;;;0.80;0.20;;;10.60;97.40;;;;;;5089919;27;20047;-78
2024/01/04 12:31:09;;;;;;;0.75;0.20;;;10.70;96.60;;;;;;5075111;28;20122;-78
2024/01/04 12:33:42;;;;;;;1.10;0.30;;;10.80;96.70;;;;;;5088942;27;20056;-79
2024/01/04 12:36:21;;;;;;;2.05;0.20;;;10.90;95.40;;;;;;5074951;28;20998;-78
2024/01/04 12:38:52;;;;;;;0.50;0.13;;;10.90;95.00;;;;;;5075122;28;20434;-78
2024/01/04 12:41:25;;;;;;;0.75;0.20;;;11.00;94.90;;;;;;5072895;28;20106;-77
2024/01/04 12:43:53;;;;;;;2.45;0.20;;;11.00;94.90;;;;;;5070087;28;20056;-78
2024/01/04 12:46:23;;;;;;;2.05;0.25;;;10.80;95.70;;;;;;5079710;28;20751;-77
2024/01/04 12:48:53;;;;;;;2.00;0.98;;;10.80;95.60;;;;;;5075500;28;20548;-82
2024/01/04 12:51:28;;;;;;;0.90;0.20;;;10.80;95.30;;;;;;5073139;28;20052;-80
2024/01/04 12:53:58;;;;;;;1.42;0.55;;;10.80;95.00;;;;;;5075677;28;20055;-79
2024/01/04 12:56:27;;;;;;;3.95;2.38;;;10.90;94.90;;;;;;5077871;28;20048;-79
2024/01/04 12:58:56;;;;;;;2.40;0.60;;;10.80;95.40;;;;;;5078572;28;20049;-79
2024/01/04 13:01:25;;;;;;;14.85;8.20;;;10.70;95.50;;;;;;5089922;27;20089;-78
2024/01/04 13:03:53;;;;;;;0.73;0.10;;;10.70;96.30;;;;;;5073401;28;20052;-78